This is the latest recevied weather packets stored in our database for station/object KD2DXJ. If no packets are shown the sender has not sent any weather packets the latest 10 day(s).
| Time | Temp. | Humidity | Pressure | Rain* | Wind** | Luminosity | Snow |
|---|---|---|---|---|---|---|---|
| 1778102334 | 8.33° C | 86% | 1008.6 hPa | 0 mm | - | 101 W/m² | - |
| 1778102031 | 8.33° C | 88% | 1008.8 hPa | 0 mm | - | 106 W/m² | - |
| 1778101728 | 8.33° C | 87% | 1009 hPa | 0 mm | - | 82 W/m² | - |
| 1778101425 | 8.33° C | 86% | 1008.8 hPa | 0 mm | - | 115 W/m² | - |
| 1778101122 | 8.33° C | 88% | 1008.8 hPa | 0 mm | - | 127 W/m² | - |
| 1778100818 | 8.33° C | 86% | 1008.8 hPa | 0 mm | - | 156 W/m² | - |
| 1778100514 | 8.33° C | 88% | 1008.8 hPa | 0 mm | - | 108 W/m² | - |
| 1778100212 | 8.33° C | 87% | 1008.6 hPa | 0 mm | - | 97 W/m² | - |
| 1778099910 | 8.33° C | 87% | 1008.8 hPa | 0 mm | - | 112 W/m² | - |
| 1778099607 | 8.33° C | 86% | 1008.6 hPa | 0 mm | - | 136 W/m² | - |
| 1778099303 | 7.78° C | 87% | 1008.8 hPa | 0 mm | - | 139 W/m² | - |
| 1778099001 | 7.78° C | 87% | 1008.5 hPa | 0 mm | - | 142 W/m² | - |
| 1778098697 | 7.78° C | 86% | 1008.5 hPa | 0 mm | - | 174 W/m² | - |
| 1778098394 | 7.78° C | 90% | 1009 hPa | 0 mm | - | 93 W/m² | - |
| 1778098091 | 7.78° C | 88% | 1008.8 hPa | 0 mm | - | 127 W/m² | - |
| 1778097787 | 7.78° C | 88% | 1008.4 hPa | 0 mm | - | 154 W/m² | - |
| 1778097483 | 7.78° C | 88% | 1008.5 hPa | 0 mm | - | 224 W/m² | - |
| 1778097181 | 7.78° C | 89% | 1008.6 hPa | 0 mm | - | 229 W/m² | - |
| 1778096878 | 7.78° C | 90% | 1008.7 hPa | 0 mm | - | 205 W/m² | - |
| 1778096574 | 7.22° C | 91% | 1008.8 hPa | 0 mm | - | 152 W/m² | - |
| 1778096272 | 7.22° C | 91% | 1009 hPa | 0 mm | - | 112 W/m² | - |
| 1778095968 | 7.22° C | 91% | 1008.9 hPa | 0 mm | - | 106 W/m² | - |
| 1778095664 | 7.22° C | 90% | 1009.1 hPa | 0 mm | - | 87 W/m² | - |
| 1778095362 | 7.22° C | 91% | 1009.1 hPa | 0 mm | - | 76 W/m² | - |
| 1778095058 | 7.22° C | 91% | 1008.9 hPa | 0 mm | - | 108 W/m² | - |
* Rain latest hour (hover to see other rain measurements)
** Current wind speed in m/s (hover to see current wind gust speed)